Time;durP1;ratioP1;P1;durP2;ratioP2;P2;SDS_P1;SDS_P2;PMS_P1;PMS_P2;Temp;Humidity;BMP_temperature;BMP_pressure;BME280_temperature;BME280_humidity;BME280_pressure;Samples;Min_cycle;Max_cycle;Signal;HPM_P1;HPM_P2
2023/01/10 00:00:35;;;;;;;10.85;1.70;;;;;;;-142.75;100.00;77479.84;5001961;28;20362;-67
2023/01/10 00:03:03;;;;;;;7.43;1.63;;;;;;;-142.75;100.00;77470.00;5002611;28;20054;-66
2023/01/10 00:05:28;;;;;;;15.00;1.50;;;;;;;-142.75;100.00;77470.00;5002789;28;20051;-66
2023/01/10 00:07:54;;;;;;;12.02;1.45;;;;;;;-142.75;100.00;77468.03;5001773;28;20480;-66
2023/01/10 00:10:20;;;;;;;16.30;2.08;;;;;;;-142.75;100.00;77479.84;5002665;28;20353;-66
2023/01/10 00:15:33;;;;;;;9.67;1.77;;;;;;;-142.75;100.00;77468.03;5001325;28;20435;-67
2023/01/10 00:17:59;;;;;;;17.70;2.40;;;;;;;-142.75;100.00;77471.97;5003200;28;20055;-66
2023/01/10 00:20:24;;;;;;;10.77;1.50;;;;;;;-142.75;100.00;77464.09;5002046;28;20487;-67
2023/01/10 00:22:50;;;;;;;14.98;1.42;;;;;;;-142.75;100.00;77470.00;5003565;28;20329;-66
2023/01/10 00:25:18;;;;;;;16.08;2.72;;;;;;;-142.75;100.00;77464.09;5001373;28;20331;-66
2023/01/10 00:27:45;;;;;;;9.83;1.83;;;;;;;-142.75;100.00;77468.03;5001000;28;20024;-67
2023/01/10 00:30:14;;;;;;;9.47;1.50;;;;;;;-142.75;100.00;77471.97;5001239;28;20603;-67
2023/01/10 00:32:43;;;;;;;17.20;2.97;;;;;;;-142.75;100.00;77466.03;5002165;28;20561;-66
2023/01/10 00:35:10;;;;;;;12.07;1.58;;;;;;;-142.75;100.00;77464.09;4982378;28;20106;-66
2023/01/10 00:37:37;;;;;;;13.43;1.80;;;;;;;-142.75;100.00;77477.88;5001192;28;20021;-67
2023/01/10 00:40:06;;;;;;;5.53;1.27;;;;;;;-142.75;100.00;77471.97;5001177;28;20139;-67
2023/01/10 00:45:18;;;;;;;8.33;1.93;;;;;;;-142.75;100.00;77468.03;5000865;28;20212;-67
2023/01/10 00:47:44;;;;;;;10.07;1.80;;;;;;;-142.75;100.00;77470.00;4982705;28;20209;-67
2023/01/10 00:50:13;;;;;;;5.13;1.50;;;;;;;-142.75;100.00;77487.72;5003161;28;20347;-66
2023/01/10 00:52:38;;;;;;;9.50;1.90;;;;;;;-142.75;100.00;77477.88;5000765;28;20028;-66
2023/01/10 00:55:04;;;;;;;11.27;1.73;;;;;;;-142.75;100.00;77475.91;5002743;28;20063;-66
2023/01/10 00:57:30;;;;;;;13.70;1.98;;;;;;;-142.75;100.00;77471.97;5001167;28;20051;-67
2023/01/10 00:59:55;;;;;;;9.98;1.60;;;;;;;-142.75;100.00;77475.91;5003706;28;20349;-66
2023/01/10 01:02:21;;;;;;;11.73;2.05;;;;;;;-142.75;100.00;77464.09;5001335;28;20267;-66
2023/01/10 01:04:46;;;;;;;20.80;1.92;;;;;;;-142.75;100.00;77473.94;5021918;22;20385;-71
2023/01/10 01:07:12;;;;;;;10.48;1.30;;;;;;;-142.75;100.00;77464.09;4981090;28;20389;-71
2023/01/10 01:10:25;;;;;;;16.75;2.33;;;;;;;-142.75;100.00;77466.03;4984951;28;20347;-69
2023/01/10 01:12:23;;;;;;;12.23;2.17;;;;;;;-142.75;100.00;77475.91;4984877;28;20412;-71
2023/01/10 01:14:48;;;;;;;7.35;1.80;;;;;;;-142.75;100.00;77479.84;4992296;28;20837;-71
2023/01/10 01:17:14;;;;;;;9.90;1.70;;;;;;;-142.75;100.00;77477.88;5007789;28;20309;-71
2023/01/10 01:19:40;;;;;;;14.30;2.53;;;;;;;-142.75;100.00;77468.03;5006436;28;20311;-70
2023/01/10 01:22:05;;;;;;;17.95;3.15;;;;;;;-142.75;100.00;77473.94;5004728;28;20028;-70
2023/01/10 01:24:31;;;;;;;10.95;1.98;;;;;;;-142.75;100.00;77471.97;5004305;28;20101;-71
2023/01/10 01:26:56;;;;;;;10.82;1.58;;;;;;;-142.75;100.00;77481.81;5004698;28;20334;-70
2023/01/10 01:29:23;;;;;;;16.33;1.83;;;;;;;-142.75;100.00;77489.69;5004167;28;20036;-71
2023/01/10 01:31:49;;;;;;;17.53;2.00;;;;;;;-142.75;100.00;77483.78;5004933;28;20020;-71
2023/01/10 01:34:14;;;;;;;10.75;1.65;;;;;;;-142.75;100.00;77487.72;5004397;28;20333;-70
2023/01/10 01:36:40;;;;;;;15.68;1.42;;;;;;;-142.75;100.00;77509.38;4986214;28;20314;-70
2023/01/10 01:39:06;;;;;;;13.05;1.70;;;;;;;-142.75;100.00;77495.59;4986076;28;20396;-71
2023/01/10 01:44:18;;;;;;;10.53;2.20;;;;;;;-142.75;100.00;77495.59;5003937;28;20055;-71
2023/01/10 01:47:00;;;;;;;11.82;2.03;;;;;;;-142.75;100.00;77493.63;5004482;28;20537;-70
2023/01/10 01:49:27;;;;;;;9.83;1.80;;;;;;;-142.75;100.00;77501.50;5004093;28;20541;-69
2023/01/10 01:52:07;;;;;;;13.83;1.77;;;;;;;-142.75;100.00;77497.56;5004207;28;20537;-69
2023/01/10 01:54:33;;;;;;;15.63;1.98;;;;;;;-142.75;100.00;77509.38;5004233;28;20547;-70
2023/01/10 01:57:08;;;;;;;;;;;;;;;-142.75;100.00;77511.34;5004877;28;20086;-70
2023/01/10 01:59:40;;;;;;;16.90;2.63;;;;;;;-142.75;100.00;77519.22;5003811;28;20026;-71
2023/01/10 02:02:13;;;;;;;12.73;2.50;;;;;;;-142.75;100.00;77513.31;5003922;28;20037;-70
2023/01/10 02:05:18;;;;;;;17.77;2.10;;;;;;;-142.75;100.00;77511.34;4985545;28;20326;-69
2023/01/10 02:07:47;;;;;;;15.38;2.17;;;;;;;-142.75;100.00;77507.41;4999975;28;20648;-69
2023/01/10 02:10:40;;;;;;;18.55;3.92;;;;;;;-142.75;100.00;77511.34;5003786;28;20024;-69
2023/01/10 02:13:08;;;;;;;20.27;2.60;;;;;;;-142.75;100.00;77519.22;5003664;28;20063;-68
2023/01/10 02:15:34;;;;;;;13.52;2.85;;;;;;;-142.75;100.00;77527.09;5003002;28;20794;-70
2023/01/10 02:18:01;;;;;;;12.10;2.15;;;;;;;-142.75;100.00;77505.44;5003529;28;20038;-71
2023/01/10 02:20:30;;;;;;;19.87;2.07;;;;;;;-142.75;100.00;77515.28;5003391;28;20016;-69
2023/01/10 02:23:17;;;;;;;19.87;2.03;;;;;;;-142.75;100.00;77517.25;5003403;28;20538;-68
2023/01/10 02:26:20;;;;;;;14.27;2.40;;;;;;;-142.75;100.00;77511.34;4965604;28;20561;-67
2023/01/10 02:29:17;;;;;;;12.15;2.10;;;;;;;-142.75;100.00;77503.47;5003047;28;20237;-70
2023/01/10 02:32:04;;;;;;;16.70;2.28;;;;;;;-142.75;100.00;77515.28;4962271;28;20033;-68
2023/01/10 02:35:13;;;;;;;19.67;2.63;;;;;;;-142.75;100.00;77511.34;4986983;28;20137;-70
2023/01/10 02:37:38;;;;;;;18.47;2.40;;;;;;;-142.75;100.00;77529.06;4948000;28;20478;-70
2023/01/10 02:40:04;;;;;;;15.50;2.70;;;;;;;-142.75;100.00;77517.25;5005295;28;20579;-68
2023/01/10 02:43:04;;;;;;;12.73;1.95;;;;;;;-142.75;100.00;77527.09;4986475;28;20043;-70
2023/01/10 02:45:37;;;;;;;18.40;1.97;;;;;;;-142.75;100.00;77538.91;4987554;28;20611;-68
2023/01/10 02:48:02;;;;;;;11.27;1.87;;;;;;;-142.75;100.00;77540.88;5005166;28;20051;-70
2023/01/10 02:50:29;;;;;;;23.90;2.00;;;;;;;-142.75;100.00;77531.03;5004821;28;20338;-70
2023/01/10 02:53:39;;;;;;;19.37;2.27;;;;;;;-142.75;100.00;77554.66;5004676;28;20024;-70
2023/01/10 02:56:22;;;;;;;12.23;2.13;;;;;;;-142.75;100.00;77558.59;4977586;28;20044;-69
2023/01/10 02:59:03;;;;;;;13.07;1.80;;;;;;;-142.75;100.00;77542.84;4999879;28;20025;-70
2023/01/10 03:01:55;;;;;;;14.17;2.27;;;;;;;-142.75;100.00;77554.66;5004851;28;20024;-70
2023/01/10 03:04:45;;;;;;;15.47;2.40;;;;;;;-142.75;100.00;77552.69;4986113;28;20127;-70
2023/01/10 03:07:18;;;;;;;9.87;2.80;;;;;;;-142.75;100.00;77552.69;5004369;28;20622;-68
2023/01/10 03:09:54;;;;;;;16.60;2.33;;;;;;;-142.75;100.00;77542.84;4986082;28;20047;-69
2023/01/10 03:12:36;;;;;;;20.77;2.60;;;;;;;-142.75;100.00;77531.03;4984890;28;20028;-70
2023/01/10 03:15:04;;;;;;;12.77;2.30;;;;;;;-142.75;100.00;77533.00;5003079;28;20127;-70
2023/01/10 03:17:30;;;;;;;15.17;2.10;;;;;;;-142.75;100.00;77538.91;5003027;28;20125;-70
2023/01/10 03:20:01;;;;;;;14.77;2.70;;;;;;;-142.75;100.00;77552.69;4983905;28;20350;-69
2023/01/10 03:22:30;;;;;;;21.02;2.55;;;;;;;-142.75;100.00;77554.66;5002808;28;20151;-70
2023/01/10 03:24:58;;;;;;;20.67;2.57;;;;;;;-142.75;100.00;77550.72;4995893;28;20047;-70
2023/01/10 03:28:04;;;;;;;14.70;2.38;;;;;;;-142.75;100.00;77554.66;5003193;28;20595;-69
2023/01/10 03:30:38;;;;;;;18.58;3.17;;;;;;;-142.75;100.00;77558.59;4962039;28;20634;-69
2023/01/10 03:33:04;;;;;;;15.20;2.40;;;;;;;-142.75;100.00;77572.38;5001325;28;20279;-71
2023/01/10 03:35:57;;;;;;;11.50;1.50;;;;;;;-142.75;100.00;77572.38;5001668;28;20393;-70
2023/01/10 03:38:31;;;;;;;12.37;2.03;;;;;;;-142.75;100.00;77586.16;5001913;28;20070;-70
2023/01/10 03:41:23;;;;;;;16.57;2.40;;;;;;;-142.75;100.00;77590.09;5002075;28;20044;-69
2023/01/10 03:44:44;;;;;;;12.97;2.17;;;;;;;-142.75;100.00;77613.72;5001668;28;20105;-69
2023/01/10 03:47:08;;;;;;;17.02;1.60;;;;;;;-142.75;100.00;77623.56;4998737;28;20805;-68
2023/01/10 03:49:38;;;;;;;14.27;2.33;;;;;;;-142.75;100.00;77625.53;4984257;28;20484;-70
2023/01/10 03:52:05;;;;;;;13.98;1.63;;;;;;;-142.75;100.00;77627.50;5002482;28;20028;-69
2023/01/10 03:54:31;;;;;;;9.77;1.53;;;;;;;-142.75;100.00;77645.22;5001900;28;20575;-70
2023/01/10 03:56:57;;;;;;;19.55;2.80;;;;;;;-142.75;100.00;77647.19;5002453;28;20032;-70
2023/01/10 03:59:25;;;;;;;15.23;2.17;;;;;;;-142.75;100.00;77641.28;5003273;28;20448;-69
2023/01/10 04:01:52;;;;;;;16.80;2.93;;;;;;;-142.75;100.00;77639.31;5003255;28;20122;-70
2023/01/10 04:04:17;;;;;;;17.83;3.03;;;;;;;-142.75;100.00;77653.09;5002184;28;20040;-70
2023/01/10 04:06:43;;;;;;;16.33;2.20;;;;;;;-142.75;100.00;77639.31;4984924;28;20190;-69
2023/01/10 04:09:09;;;;;;;6.50;1.58;;;;;;;-142.75;100.00;77627.50;5001443;28;20307;-67
2023/01/10 04:11:35;;;;;;;25.98;2.92;;;;;;;-142.75;100.00;77637.34;4983845;28;20028;-70
2023/01/10 04:14:00;;;;;;;28.60;3.08;;;;;;;-142.75;100.00;77633.41;5001279;28;20395;-70
2023/01/10 04:16:26;;;;;;;21.58;2.47;;;;;;;-142.75;100.00;77625.53;5001953;28;20249;-70
2023/01/10 04:18:51;;;;;;;10.07;1.65;;;;;;;-142.75;100.00;77619.63;5002702;28;20237;-69
2023/01/10 04:21:17;;;;;;;11.15;2.03;;;;;;;-142.75;100.00;77623.56;4984563;28;20442;-69
2023/01/10 04:23:42;;;;;;;14.82;2.80;;;;;;;-142.75;100.00;77631.44;5002698;28;20334;-69
2023/01/10 04:26:08;;;;;;;16.38;2.47;;;;;;;-142.75;100.00;77662.94;5002183;28;20321;-68
2023/01/10 04:28:33;;;;;;;8.80;2.05;;;;;;;-142.75;100.00;77649.16;5003261;28;20062;-70
2023/01/10 04:30:59;;;;;;;18.02;2.72;;;;;;;-142.75;100.00;77659.00;4984714;28;20405;-68
2023/01/10 04:33:24;;;;;;;20.45;1.83;;;;;;;-142.75;100.00;77676.72;5001171;28;20020;-70
2023/01/10 04:35:51;;;;;;;19.20;2.33;;;;;;;-142.75;100.00;77659.00;4982703;28;20385;-68
2023/01/10 04:38:17;;;;;;;18.95;3.47;;;;;;;-142.75;100.00;77659.00;5001796;28;20663;-68
2023/01/10 04:40:43;;;;;;;16.13;1.93;;;;;;;-142.75;100.00;77659.00;4982929;28;20020;-70
2023/01/10 04:43:10;;;;;;;16.30;2.72;;;;;;;-142.75;100.00;77664.91;5002679;28;20291;-70
2023/01/10 04:45:36;;;;;;;20.40;3.63;;;;;;;-142.75;100.00;77676.72;5004847;28;20526;-68
2023/01/10 04:48:02;;;;;;;20.52;2.75;;;;;;;-142.75;100.00;77680.66;5005964;28;20102;-70
2023/01/10 04:50:28;;;;;;;13.13;2.20;;;;;;;-142.75;100.00;77682.63;5006183;28;20238;-69
2023/01/10 04:52:53;;;;;;;;;;;;;;;-142.75;100.00;77692.47;5006370;28;20024;-70
2023/01/10 04:55:19;;;;;;;16.80;2.43;;;;;;;-142.75;100.00;77704.28;5006639;28;20207;-70
2023/01/10 04:57:45;;;;;;;19.83;3.03;;;;;;;-142.75;100.00;77729.88;5008152;28;20460;-68
2023/01/10 05:00:11;;;;;;;15.73;2.30;;;;;;;-142.75;100.00;77720.03;5009304;28;20032;-69
2023/01/10 05:02:42;;;;;;;16.10;2.70;;;;;;;-142.75;100.00;77731.88;5008548;28;20560;-68
2023/01/10 05:05:10;;;;;;;14.80;2.00;;;;;;;-142.75;100.00;77737.78;5008271;28;20024;-70
2023/01/10 05:07:36;;;;;;;13.57;2.50;;;;;;;-142.75;100.00;77743.69;5007708;28;20031;-68
2023/01/10 05:10:02;;;;;;;13.57;1.80;;;;;;;-142.75;100.00;77745.66;5008981;28;20043;-69
2023/01/10 05:12:28;;;;;;;14.03;2.50;;;;;;;-142.75;100.00;77751.56;5010168;28;20013;-71
2023/01/10 05:14:53;;;;;;;10.07;2.17;;;;;;;-142.75;100.00;77757.47;5008237;28;20331;-69
2023/01/10 05:17:19;;;;;;;17.77;2.15;;;;;;;-142.75;100.00;77753.53;5008265;28;20405;-70
2023/01/10 05:19:44;;;;;;;12.00;2.28;;;;;;;-142.75;100.00;77745.66;5008314;28;20424;-69
2023/01/10 05:22:10;;;;;;;15.73;1.58;;;;;;;-142.75;100.00;77741.72;5008159;28;20322;-70
2023/01/10 05:24:35;;;;;;;10.88;2.13;;;;;;;-142.75;100.00;77753.53;5007143;28;20358;-70
2023/01/10 05:27:01;;;;;;;9.90;1.95;;;;;;;-142.75;100.00;77753.53;5006486;28;20202;-70
2023/01/10 05:29:26;;;;;;;10.32;2.13;;;;;;;-142.75;100.00;77755.50;4990272;28;20020;-70
2023/01/10 05:31:52;;;;;;;20.23;2.38;;;;;;;-142.75;100.00;77761.41;5008229;28;20366;-70
2023/01/10 05:34:18;;;;;;;15.88;1.77;;;;;;;-142.75;100.00;77769.28;5010085;28;20101;-70
2023/01/10 05:36:43;;;;;;;12.77;2.10;;;;;;;-142.75;100.00;77767.31;5010112;28;20435;-70
2023/01/10 05:39:09;;;;;;;12.93;2.20;;;;;;;-142.75;100.00;77769.28;4988371;28;20338;-70
2023/01/10 05:41:34;;;;;;;19.30;2.50;;;;;;;-142.75;100.00;77765.34;4987189;28;20198;-70
2023/01/10 05:44:00;;;;;;;18.52;2.38;;;;;;;-142.75;100.00;77763.38;5005374;28;20315;-70
2023/01/10 05:46:25;;;;;;;21.80;2.55;;;;;;;-142.75;100.00;77767.31;5006271;28;20338;-70
2023/01/10 05:48:52;;;;;;;10.32;1.90;;;;;;;-142.75;100.00;77763.38;4987762;28;20335;-70
2023/01/10 05:51:17;;;;;;;10.20;2.30;;;;;;;-142.75;100.00;77753.53;4988531;28;20063;-69
2023/01/10 05:53:43;;;;;;;17.30;3.22;;;;;;;-142.75;100.00;77759.44;5005491;28;20562;-69
2023/01/10 05:56:09;;;;;;;12.05;1.77;;;;;;;-142.75;100.00;77765.34;4989086;28;20071;-70
2023/01/10 05:58:34;;;;;;;15.30;2.78;;;;;;;-142.75;100.00;77767.31;5007428;28;20608;-70
2023/01/10 06:01:00;;;;;;;22.08;2.60;;;;;;;-142.75;100.00;77787.00;5006811;28;20061;-69
2023/01/10 06:03:26;;;;;;;12.68;2.55;;;;;;;-142.75;100.00;77788.97;5005578;28;20303;-70
2023/01/10 06:05:53;;;;;;;13.82;2.50;;;;;;;-142.75;100.00;77759.44;5006348;28;20464;-70
2023/01/10 06:08:18;;;;;;;11.47;3.30;;;;;;;-142.75;100.00;77763.38;4986781;28;20991;-69
2023/01/10 06:10:44;;;;;;;10.95;2.33;;;;;;;-142.75;100.00;77757.47;5006403;28;20024;-70
2023/01/10 06:13:11;;;;;;;20.58;2.70;;;;;;;-142.75;100.00;77781.09;4987018;28;20465;-70
2023/01/10 06:15:36;;;;;;;20.53;2.87;;;;;;;-142.75;100.00;77763.38;5006421;28;20043;-70
2023/01/10 06:18:02;;;;;;;9.15;2.28;;;;;;;-142.75;100.00;77771.25;5005021;28;20285;-69
2023/01/10 06:20:28;;;;;;;21.88;2.58;;;;;;;-142.75;100.00;77759.44;5003265;28;20345;-69
2023/01/10 06:22:53;;;;;;;19.73;2.85;;;;;;;-142.75;100.00;77755.50;5004323;28;20350;-70
2023/01/10 06:25:19;;;;;;;19.15;2.92;;;;;;;-142.75;100.00;77775.19;5003331;28;20025;-70
2023/01/10 06:27:44;;;;;;;20.30;2.85;;;;;;;-142.75;100.00;77790.94;5004094;28;20371;-71
2023/01/10 06:30:12;;;;;;;15.85;3.03;;;;;;;-142.75;100.00;77808.66;4985412;28;20374;-71
2023/01/10 06:32:38;;;;;;;18.20;2.57;;;;;;;-142.75;100.00;77812.59;5003359;28;20570;-69
2023/01/10 06:35:04;;;;;;;13.80;2.15;;;;;;;-142.75;100.00;77812.59;4986192;28;20202;-70
2023/01/10 06:37:29;;;;;;;15.25;3.95;;;;;;;-142.75;100.00;77812.59;5005811;28;20039;-69
2023/01/10 06:39:55;;;;;;;15.95;3.50;;;;;;;-142.75;100.00;77816.53;5004334;28;20033;-70
2023/01/10 06:42:21;;;;;;;16.17;2.67;;;;;;;-142.75;100.00;77814.56;5005770;28;20194;-70
2023/01/10 06:44:46;;;;;;;16.52;3.45;;;;;;;-142.75;100.00;77822.44;5004870;28;20457;-70
2023/01/10 06:47:12;;;;;;;16.52;2.75;;;;;;;-142.75;100.00;77822.44;5007615;28;20317;-70
2023/01/10 06:49:37;;;;;;;16.50;2.35;;;;;;;-142.75;100.00;77822.44;5005996;28;20388;-70
2023/01/10 06:52:03;;;;;;;23.30;2.72;;;;;;;-142.75;100.00;77826.38;4987761;28;20479;-69
2023/01/10 06:54:28;;;;;;;17.92;3.88;;;;;;;-142.75;100.00;77834.25;5004063;28;20039;-70
2023/01/10 06:56:54;;;;;;;12.23;2.30;;;;;;;-142.75;100.00;77857.88;5004607;28;20283;-70
2023/01/10 06:59:19;;;;;;;17.00;2.35;;;;;;;-142.75;100.00;77848.03;5002847;28;20454;-69
2023/01/10 07:01:45;;;;;;;16.67;2.22;;;;;;;-142.75;100.00;77869.69;5003636;28;20338;-70
2023/01/10 07:04:10;;;;;;;21.90;2.58;;;;;;;-142.75;100.00;77869.69;5004445;28;20206;-69
2023/01/10 07:06:37;;;;;;;19.00;2.38;;;;;;;-142.75;100.00;77877.56;5008808;28;20349;-68
2023/01/10 07:09:04;;;;;;;13.13;2.20;;;;;;;-142.75;100.00;77877.56;5002852;28;20135;-69
2023/01/10 07:11:30;;;;;;;15.63;2.67;;;;;;;-142.75;100.00;77879.53;4984979;28;20028;-69
2023/01/10 07:13:56;;;;;;;13.23;2.00;;;;;;;-142.75;100.00;77889.38;4985009;28;20037;-70
2023/01/10 07:16:21;;;;;;;12.85;2.28;;;;;;;-142.75;100.00;77913.03;5002543;28;20346;-68
2023/01/10 07:18:47;;;;;;;17.70;3.00;;;;;;;-142.75;100.00;77899.22;5003329;28;20055;-68
2023/01/10 07:21:14;;;;;;;18.65;2.33;;;;;;;-142.75;100.00;77905.13;5003032;28;20024;-70
2023/01/10 07:23:39;;;;;;;15.93;3.23;;;;;;;-142.75;100.00;77924.84;5002431;28;20457;-68
2023/01/10 07:26:10;;;;;;;18.35;2.83;;;;;;;-142.75;100.00;77936.66;5002925;28;20020;-70
2023/01/10 07:28:35;;;;;;;13.17;2.03;;;;;;;-142.75;100.00;77970.13;5002538;28;20055;-69
2023/01/10 07:31:04;;;;;;;23.70;3.33;;;;;;;-142.75;100.00;77968.16;4984268;28;20357;-70
2023/01/10 07:33:30;;;;;;;20.53;2.97;;;;;;;-142.75;100.00;77974.06;4983762;28;20810;-67
2023/01/10 07:35:56;;;;;;;21.80;3.63;;;;;;;-142.75;100.00;77976.03;5001759;28;20056;-70
2023/01/10 07:38:22;;;;;;;;;;;;;;;-142.75;100.00;77987.84;5002453;28;20205;-70
2023/01/10 07:40:47;;;;;;;18.73;2.47;;;;;;;-142.75;100.00;78015.41;4987506;28;20320;-69
2023/01/10 07:43:13;;;;;;;23.02;4.07;;;;;;;-142.75;100.00;77978.00;5001940;28;20315;-69
2023/01/10 07:45:38;;;;;;;18.77;3.33;;;;;;;-142.75;100.00;77993.75;4984212;28;20195;-69
2023/01/10 07:48:04;;;;;;;21.27;2.42;;;;;;;-142.75;100.00;77981.94;4988884;28;20327;-69
2023/01/10 07:50:33;;;;;;;;;;;;;;;-142.75;100.00;77991.78;5002485;28;20105;-70
2023/01/10 07:53:00;;;;;;;24.87;3.90;;;;;;;-142.75;100.00;77995.72;5002693;28;20042;-70
2023/01/10 07:55:26;;;;;;;17.40;2.77;;;;;;;-142.75;100.00;78031.16;4983958;28;20131;-70
2023/01/10 07:57:52;;;;;;;27.27;4.30;;;;;;;-142.75;100.00;78025.25;5002036;28;20529;-68
2023/01/10 08:00:18;;;;;;;23.00;3.75;;;;;;;-142.75;100.00;78041.00;5001885;28;20091;-70
2023/01/10 08:02:44;;;;;;;17.90;4.33;;;;;;;-142.75;100.00;78035.09;4986421;28;20048;-70
2023/01/10 08:05:10;;;;;;;15.40;3.50;;;;;;;-142.75;100.00;78039.03;4983310;28;20380;-70
2023/01/10 08:07:36;;;;;;;16.58;3.42;;;;;;;-142.75;100.00;78042.97;5001469;28;20469;-68
2023/01/10 08:10:06;;;;;;;17.70;3.13;;;;;;;-142.75;100.00;78035.09;5001811;28;20131;-70
2023/01/10 08:12:32;;;;;;;26.50;3.47;;;;;;;-142.75;100.00;78023.28;5001653;28;20048;-70
2023/01/10 08:14:58;;;;;;;17.40;3.20;;;;;;;-142.75;100.00;78007.53;4983364;28;20500;-69
2023/01/10 08:17:23;;;;;;;21.00;4.68;;;;;;;-142.75;100.00;78021.31;4983119;28;20024;-70
2023/01/10 08:19:49;;;;;;;17.13;3.47;;;;;;;-142.75;100.00;78027.22;5001700;28;20059;-69
2023/01/10 08:22:14;;;;;;;23.40;3.53;;;;;;;-142.75;100.00;78021.31;5002863;28;20028;-69
2023/01/10 08:24:40;;;;;;;17.15;3.42;;;;;;;-142.75;100.00;78044.94;5001661;28;20029;-69
2023/01/10 08:27:05;;;;;;;20.77;3.53;;;;;;;-142.75;100.00;78025.25;5001301;28;20465;-69
2023/01/10 08:29:31;;;;;;;17.40;3.60;;;;;;;-142.75;100.00;78037.06;5001304;28;20252;-69
2023/01/10 08:31:57;;;;;;;22.67;4.53;;;;;;;-142.75;100.00;78048.88;4983529;28;20419;-69
2023/01/10 08:34:23;;;;;;;22.73;3.53;;;;;;;-142.75;100.00;78046.91;4983042;28;20336;-69
2023/01/10 08:36:53;;;;;;;14.82;3.15;;;;;;;-142.75;100.00;78037.06;5001331;28;20357;-70
2023/01/10 08:39:21;;;;;;;23.00;3.90;;;;;;;-142.75;100.00;78039.03;5001383;28;20711;-68
2023/01/10 08:41:47;;;;;;;16.30;4.17;;;;;;;-142.75;100.00;78029.19;5001265;28;20079;-70
2023/01/10 08:44:14;;;;;;;25.87;3.30;;;;;;;-142.75;100.00;78042.97;4982819;28;20048;-70
2023/01/10 08:46:41;;;;;;;19.43;4.10;;;;;;;-142.75;100.00;78031.16;5001522;28;20051;-70
2023/01/10 08:49:07;;;;;;;14.90;3.30;;;;;;;-142.75;100.00;78042.97;5002115;28;20020;-70
2023/01/10 08:51:32;;;;;;;20.30;3.95;;;;;;;-142.75;100.00;78025.25;5004429;28;20466;-70
2023/01/10 08:53:58;;;;;;;15.25;3.80;;;;;;;-142.75;100.00;78023.28;5002261;28;20396;-70
2023/01/10 08:56:24;;;;;;;27.65;3.50;;;;;;;-142.75;100.00;78033.13;4985524;28;20396;-70
2023/01/10 08:58:50;;;;;;;25.77;3.95;;;;;;;-142.75;100.00;78011.47;5002261;28;20327;-69
2023/01/10 09:01:16;;;;;;;13.50;3.35;;;;;;;-142.75;100.00;78021.31;4985160;28;20222;-70
2023/01/10 09:03:42;;;;;;;26.30;3.20;;;;;;;-142.75;100.00;78044.94;4984526;28;20174;-69
2023/01/10 09:06:08;;;;;;;23.37;3.10;;;;;;;-142.75;100.00;78027.22;4983586;28;20020;-70
2023/01/10 09:08:34;;;;;;;24.10;4.40;;;;;;;-142.75;100.00;78027.22;5002689;28;20373;-70
2023/01/10 09:11:00;;;;;;;35.90;3.30;;;;;;;-142.75;100.00;78041.00;5001065;28;20139;-70
2023/01/10 09:13:27;;;;;;;27.90;4.15;;;;;;;-142.75;100.00;78042.97;5001191;28;20032;-69
2023/01/10 09:15:53;;;;;;;18.20;3.23;;;;;;;-142.75;100.00;78056.78;5001026;28;20119;-71
2023/01/10 09:18:19;;;;;;;26.20;3.38;;;;;;;-142.75;100.00;78039.03;5001687;28;20315;-69
2023/01/10 09:20:45;;;;;;;17.80;3.80;;;;;;;-142.75;100.00;78039.03;4983349;28;20032;-70
2023/01/10 09:23:18;;;;;;;32.37;3.60;;;;;;;-142.75;100.00;78052.81;5001456;28;20573;-68
2023/01/10 09:25:49;;;;;;;11.30;2.30;;;;;;;-142.75;100.00;78039.03;5000514;28;20572;-69
2023/01/10 09:28:15;;;;;;;15.07;3.87;;;;;;;-142.75;100.00;78046.91;5002597;28;20031;-68
2023/01/10 09:30:41;;;;;;;22.87;3.70;;;;;;;-142.75;100.00;78050.84;5004833;28;20833;-68
2023/01/10 09:33:07;;;;;;;16.42;3.15;;;;;;;-142.75;100.00;78062.69;4986730;28;20031;-69
2023/01/10 09:35:35;;;;;;;14.75;2.72;;;;;;;-142.75;100.00;78046.91;5004174;28;20042;-68
2023/01/10 09:38:02;;;;;;;19.27;3.67;;;;;;;-142.75;100.00;78064.66;5004581;28;20616;-68
2023/01/10 09:40:47;;;;;;;22.20;3.77;;;;;;;-142.75;100.00;78070.56;5004725;28;20127;-71
2023/01/10 09:43:21;;;;;;;11.37;2.73;;;;;;;-142.75;100.00;78066.63;5003914;28;20533;-69
2023/01/10 09:45:57;;;;;;;14.30;3.07;;;;;;;-142.75;100.00;78076.47;5004035;28;20063;-69
2023/01/10 09:48:33;;;;;;;26.77;3.65;;;;;;;-142.75;100.00;78046.91;4986487;28;20442;-67
2023/01/10 09:51:40;;;;;;;13.23;2.67;;;;;;;-142.75;100.00;78066.63;5004287;28;20059;-70
2023/01/10 09:54:12;;;;;;;13.73;2.97;;;;;;;-142.75;100.00;78052.81;4934523;28;20074;-69
2023/01/10 09:56:39;;;;;;;24.33;3.33;;;;;;;-142.75;100.00;78052.81;4925421;28;20273;-68
2023/01/10 09:59:05;;;;;;;19.17;2.83;;;;;;;-142.75;100.00;78048.88;4963592;28;20139;-69
2023/01/10 10:01:37;;;;;;;20.27;3.27;;;;;;;-142.75;100.00;78042.97;5003693;28;20028;-67
2023/01/10 10:04:32;;;;;;;18.37;3.97;;;;;;;-142.75;100.00;78056.78;5003665;28;20517;-68
2023/01/10 10:06:57;;;;;;;25.67;3.57;;;;;;;-142.75;100.00;78039.03;4986105;28;20661;-68
2023/01/10 10:09:30;;;;;;;20.70;3.20;;;;;;;-142.75;100.00;78066.63;5003791;28;20055;-69
2023/01/10 10:12:23;;;;;;;17.20;3.87;;;;;;;-142.75;100.00;78054.81;5004563;28;20165;-69
2023/01/10 10:15:16;;;;;;;14.50;3.97;;;;;;;-142.75;100.00;78042.97;4985490;28;20648;-68
2023/01/10 10:17:51;;;;;;;15.03;3.03;;;;;;;-142.75;100.00;78070.56;5004000;28;20712;-68
2023/01/10 10:20:38;;;;;;;23.90;3.27;;;;;;;-142.75;100.00;78060.72;5003800;28;20054;-71
2023/01/10 10:23:22;;;;;;;12.23;3.20;;;;;;;-142.75;100.00;78039.03;5000456;28;20024;-70
2023/01/10 10:26:12;;;;;;;23.30;3.17;;;;;;;-142.75;100.00;78046.91;4991207;28;20537;-68
2023/01/10 10:28:46;;;;;;;22.30;3.40;;;;;;;-142.75;100.00;78025.25;4965716;28;20021;-71
2023/01/10 10:31:33;;;;;;;27.13;3.53;;;;;;;-142.75;100.00;78027.22;4967731;28;20542;-68
2023/01/10 10:34:19;;;;;;;17.00;2.85;;;;;;;-142.75;100.00;78019.34;5004164;28;20537;-67
2023/01/10 10:36:50;;;;;;;19.95;3.08;;;;;;;-142.75;100.00;78027.22;4985223;28;20513;-68
2023/01/10 10:39:20;;;;;;;24.53;3.77;;;;;;;-142.75;100.00;78027.22;4985316;28;20097;-69
2023/01/10 10:41:49;;;;;;;15.33;3.43;;;;;;;-142.75;100.00;78015.41;5003001;28;20603;-69
2023/01/10 10:44:38;;;;;;;22.80;3.23;;;;;;;-142.75;100.00;78009.50;5003467;28;20020;-70
2023/01/10 10:47:13;;;;;;;11.13;2.90;;;;;;;-142.75;100.00;78007.53;4992249;28;20645;-71
2023/01/10 10:49:45;;;;;;;21.27;2.83;;;;;;;-142.75;100.00;77991.78;5003915;28;20024;-70
2023/01/10 10:52:25;;;;;;;19.13;2.70;;;;;;;-142.75;100.00;77993.75;5002984;28;20028;-70
2023/01/10 10:54:52;;;;;;;23.87;3.00;;;;;;;-142.75;100.00;77976.03;5002509;28;20058;-70
2023/01/10 10:57:20;;;;;;;12.93;1.97;;;;;;;-142.75;100.00;77987.84;5003742;28;20097;-69
2023/01/10 10:59:47;;;;;;;19.60;2.73;;;;;;;-142.75;100.00;77970.13;5003364;28;20024;-70
2023/01/10 11:02:25;;;;;;;13.10;3.70;;;;;;;-142.75;100.00;77968.16;5002833;28;20123;-70
2023/01/10 11:04:55;;;;;;;13.97;3.17;;;;;;;-142.75;100.00;77964.22;5003406;28;20033;-70
2023/01/10 11:07:22;;;;;;;22.43;2.87;;;;;;;-142.75;100.00;77960.28;5002978;28;20600;-70
2023/01/10 11:12:18;;;;;;;18.80;3.30;;;;;;;-142.75;100.00;77976.03;5003739;28;20707;-67
2023/01/10 11:14:50;;;;;;;25.87;4.10;;;;;;;-142.75;100.00;77960.28;5002282;28;20102;-70
2023/01/10 11:17:27;;;;;;;10.23;2.73;;;;;;;-142.75;100.00;77960.28;5002214;28;20031;-71
2023/01/10 11:20:00;;;;;;;14.70;2.70;;;;;;;-142.75;100.00;77946.50;5002428;28;20021;-70
2023/01/10 11:22:30;;;;;;;10.70;2.77;;;;;;;-142.75;100.00;77934.69;4984344;28;20024;-69
2023/01/10 11:24:59;;;;;;;22.67;2.83;;;;;;;-142.75;100.00;77922.88;4984316;28;20545;-68